createdAt,value
2023-04-09T00:03:29.938Z,101109.96
2023-04-09T00:08:33.947Z,101108.35
2023-04-09T00:13:39.602Z,101106.20
2023-04-09T00:18:43.790Z,101105.64
2023-04-09T00:23:47.483Z,101103.71
2023-04-09T00:28:51.503Z,101104.41
2023-04-09T00:33:55.857Z,101105.64
2023-04-09T00:39:03.158Z,101105.60
2023-04-09T00:44:06.980Z,101103.15
2023-04-09T00:49:10.775Z,101108.77
2023-04-09T00:54:14.885Z,101106.99
2023-04-09T00:59:18.838Z,101107.69
2023-04-09T01:04:23.637Z,101108.86
2023-04-09T01:09:42.773Z,101105.48
2023-04-09T01:14:57.750Z,101104.29
2023-04-09T01:20:10.765Z,101113.55
2023-04-09T01:25:34.452Z,101125.02
2023-04-09T01:30:40.267Z,101129.13
2023-04-09T01:35:46.754Z,101132.48
2023-04-09T01:40:51.310Z,101138.57
2023-04-09T01:45:55.579Z,101146.96
2023-04-09T01:50:59.892Z,101149.28
2023-04-09T01:56:04.043Z,101157.38
2023-04-09T02:01:07.774Z,101155.16
2023-04-09T02:06:17.940Z,101153.74
2023-04-09T02:11:24.303Z,101148.68
2023-04-09T02:16:28.734Z,101143.80
2023-04-09T02:21:32.617Z,101143.72
2023-04-09T02:26:36.346Z,101142.39
2023-04-09T02:31:40.037Z,101145.73
2023-04-09T02:36:44.090Z,101142.69
2023-04-09T02:41:48.132Z,101138.80
2023-04-09T02:46:52.982Z,101141.86
2023-04-09T02:51:56.984Z,101145.98
2023-04-09T02:57:01.595Z,101143.14
2023-04-09T03:02:05.535Z,101140.23
2023-04-09T03:07:09.558Z,101138.42
2023-04-09T03:12:13.417Z,101136.30
2023-04-09T03:17:17.133Z,101137.95
2023-04-09T03:22:20.960Z,101133.09
2023-04-09T03:27:27.587Z,101133.91
2023-04-09T03:32:32.185Z,101132.23
2023-04-09T03:37:36.680Z,101129.64
2023-04-09T03:42:43.221Z,101129.99
2023-04-09T03:47:47.936Z,101132.52
2023-04-09T03:52:53.477Z,101132.94
2023-04-09T03:57:57.436Z,101130.85
2023-04-09T04:03:04.646Z,101135.25
2023-04-09T04:08:24.748Z,101139.78
2023-04-09T04:13:28.655Z,101144.11
2023-04-09T04:18:34.165Z,101144.65
2023-04-09T04:23:38.192Z,101148.58
2023-04-09T04:28:53.459Z,101149.91
2023-04-09T04:34:22.344Z,101153.38
2023-04-09T04:39:32.658Z,101152.88
2023-04-09T04:44:40.712Z,101152.89
2023-04-09T04:50:04.596Z,101153.61
2023-04-09T04:55:13.094Z,101158.04
2023-04-09T05:00:19.283Z,101157.69
2023-04-09T05:05:24.184Z,101154.11
2023-04-09T05:10:31.355Z,101155.62
2023-04-09T05:15:41.580Z,101160.00
2023-04-09T05:20:46.498Z,101161.05
2023-04-09T05:25:50.952Z,101162.58
2023-04-09T05:31:03.298Z,101164.67
2023-04-09T05:36:09.337Z,101163.79
2023-04-09T05:41:13.451Z,101169.21
2023-04-09T05:46:25.644Z,101175.19
2023-04-09T05:51:29.444Z,101176.30
2023-04-09T05:56:33.937Z,101175.96
2023-04-09T06:01:38.393Z,101175.95
2023-04-09T06:06:42.269Z,101172.16
2023-04-09T06:11:46.127Z,101172.02
2023-04-09T06:16:49.907Z,101176.18
2023-04-09T06:21:53.642Z,101174.05
2023-04-09T06:26:57.355Z,101167.99
2023-04-09T06:32:01.417Z,101175.35
2023-04-09T06:37:05.377Z,101177.19
2023-04-09T06:42:09.129Z,101172.14
2023-04-09T06:47:35.987Z,101175.88
2023-04-09T06:52:39.990Z,101182.58
2023-04-09T06:57:43.738Z,101184.38
2023-04-09T07:02:47.688Z,101194.42
2023-04-09T07:07:51.968Z,101198.18
2023-04-09T07:12:55.678Z,101200.19
2023-04-09T07:17:59.946Z,101201.76
2023-04-09T07:23:03.643Z,101200.30
2023-04-09T07:28:07.354Z,101204.35
2023-04-09T07:33:11.177Z,101202.52
2023-04-09T07:38:15.286Z,101200.20
2023-04-09T07:43:20.177Z,101197.84
2023-04-09T07:48:25.134Z,101203.05
2023-04-09T07:53:28.914Z,101210.73
2023-04-09T07:58:32.623Z,101209.52
2023-04-09T08:03:37.370Z,101202.27
2023-04-09T08:08:42.136Z,101203.07
2023-04-09T08:13:45.875Z,101202.39
2023-04-09T08:18:51.372Z,101202.11
2023-04-09T08:23:59.921Z,101203.18
2023-04-09T08:29:04.132Z,101201.30
2023-04-09T08:34:08.256Z,101206.83
2023-04-09T08:39:12.436Z,101209.44
2023-04-09T08:44:17.082Z,101208.77
2023-04-09T08:49:21.643Z,101209.38
2023-04-09T08:54:27.295Z,101214.34
2023-04-09T08:59:31.306Z,101216.00
2023-04-09T09:04:46.926Z,101216.83
2023-04-09T09:10:03.852Z,101217.92
2023-04-09T09:15:28.856Z,101220.05
2023-04-09T09:20:32.840Z,101226.11
2023-04-09T09:25:43.630Z,101227.91
2023-04-09T09:30:49.194Z,101225.55
2023-04-09T09:35:54.934Z,101226.35
2023-04-09T09:40:59.495Z,101223.00
2023-04-09T09:46:03.586Z,101224.18
2023-04-09T09:51:13.160Z,101220.82
2023-04-09T09:56:20.036Z,101223.73
2023-04-09T10:01:25.139Z,101217.00
2023-04-09T10:06:29.091Z,101215.98
2023-04-09T10:11:34.558Z,101221.09
2023-04-09T10:16:38.488Z,101215.79
2023-04-09T10:21:46.255Z,101209.99
2023-04-09T10:26:54.861Z,101215.86
2023-04-09T10:32:06.728Z,101219.42
2023-04-09T10:37:15.274Z,101216.73
2023-04-09T10:42:27.580Z,101211.98
2023-04-09T10:47:36.598Z,101209.74
2023-04-09T10:52:42.157Z,101208.64
2023-04-09T10:57:46.090Z,101207.98
2023-04-09T11:03:07.126Z,101212.61
2023-04-09T11:08:12.868Z,101207.75
2023-04-09T11:13:18.763Z,101208.38
2023-04-09T11:18:27.554Z,101206.27
2023-04-09T11:23:32.602Z,101201.67
2023-04-09T11:28:36.294Z,101196.04
2023-04-09T11:33:40.048Z,101190.42
2023-04-09T11:38:43.701Z,101188.34
2023-04-09T11:43:47.453Z,101189.67
2023-04-09T11:48:51.811Z,101191.03
2023-04-09T11:53:55.976Z,101197.27
2023-04-09T11:58:59.881Z,101204.17
2023-04-09T12:04:03.966Z,101203.32
2023-04-09T12:09:09.304Z,101199.70
2023-04-09T12:14:17.488Z,101206.69
2023-04-09T12:19:21.614Z,101212.02
2023-04-09T12:24:26.755Z,101214.55
2023-04-09T12:29:31.083Z,101216.73
2023-04-09T12:34:34.768Z,101215.98
2023-04-09T12:39:38.503Z,101211.73
2023-04-09T12:44:42.283Z,101213.61
2023-04-09T12:49:47.187Z,101208.45
2023-04-09T12:54:52.705Z,101208.70
2023-04-09T12:59:56.451Z,101209.23
2023-04-09T13:05:00.658Z,101208.67
2023-04-09T13:10:05.024Z,101209.31
2023-04-09T13:15:09.287Z,101207.77
2023-04-09T13:20:13.225Z,101211.98
2023-04-09T13:25:17.123Z,101200.27
2023-04-09T13:30:22.926Z,101201.49
2023-04-09T13:35:26.665Z,101197.64
2023-04-09T13:40:30.440Z,101188.84
2023-04-09T13:45:34.505Z,101186.61
2023-04-09T13:50:38.372Z,101189.14
2023-04-09T13:55:42.260Z,101191.41
2023-04-09T14:00:45.984Z,101194.66
2023-04-09T14:05:50.102Z,101193.63
2023-04-09T14:10:53.818Z,101194.86
2023-04-09T14:16:00.331Z,101195.75
2023-04-09T14:21:04.550Z,101191.69
2023-04-09T14:26:08.838Z,101191.08
2023-04-09T14:31:13.514Z,101189.50
2023-04-09T14:36:18.078Z,101186.92
2023-04-09T14:41:21.994Z,101187.81
2023-04-09T14:46:25.782Z,101185.58
2023-04-09T14:51:31.065Z,101186.29
2023-04-09T14:56:34.755Z,101184.39
2023-04-09T15:01:38.566Z,101178.98
2023-04-09T15:06:43.437Z,101182.27
2023-04-09T15:11:47.882Z,101177.78
2023-04-09T15:16:52.130Z,101178.20
2023-04-09T15:21:56.722Z,101175.16
2023-04-09T15:27:02.177Z,101178.14
2023-04-09T15:32:07.796Z,101176.77
2023-04-09T15:37:11.534Z,101178.36
2023-04-09T15:42:20.551Z,101172.73
2023-04-09T15:47:24.168Z,101170.33
2023-04-09T15:52:27.983Z,101163.80
2023-04-09T15:57:31.666Z,101167.23
2023-04-09T16:02:37.196Z,101164.27
2023-04-09T16:07:41.296Z,101165.80
2023-04-09T16:12:45.031Z,101167.31
2023-04-09T16:17:48.726Z,101168.14
2023-04-09T16:22:52.565Z,101164.13
2023-04-09T16:27:56.425Z,101163.42
2023-04-09T16:33:00.309Z,101160.77
2023-04-09T16:38:05.323Z,101159.52
2023-04-09T16:43:09.086Z,101156.44
2023-04-09T16:48:13.843Z,101155.89
2023-04-09T16:53:17.808Z,101158.38
2023-04-09T16:58:21.573Z,101160.59
2023-04-09T17:03:26.743Z,101167.56
2023-04-09T17:08:30.924Z,101174.35
2023-04-09T17:13:36.562Z,101176.52
2023-04-09T17:18:40.351Z,101179.21
2023-04-09T17:23:44.619Z,101180.95
2023-04-09T17:28:48.366Z,101181.34
2023-04-09T17:33:52.351Z,101183.98
2023-04-09T17:38:56.898Z,101184.05
2023-04-09T17:44:00.646Z,101187.19
2023-04-09T17:49:04.755Z,101193.08
2023-04-09T17:54:08.496Z,101195.73
2023-04-09T17:59:12.484Z,101200.70
2023-04-09T18:04:16.836Z,101202.64
2023-04-09T18:09:21.032Z,101201.90
2023-04-09T18:14:25.262Z,101204.10
2023-04-09T18:19:29.015Z,101206.39
2023-04-09T18:24:34.219Z,101205.98
2023-04-09T18:29:38.009Z,101209.38
2023-04-09T18:34:41.816Z,101217.09
2023-04-09T18:39:47.303Z,101219.58
2023-04-09T18:44:51.293Z,101222.42
2023-04-09T18:49:56.354Z,101226.81
2023-04-09T18:55:01.870Z,101233.30
2023-04-09T19:00:08.257Z,101240.98
2023-04-09T19:05:13.321Z,101240.67
2023-04-09T19:10:17.788Z,101245.02
2023-04-09T19:15:29.318Z,101251.39
2023-04-09T19:20:35.431Z,101251.52
2023-04-09T19:25:39.572Z,101252.97
2023-04-09T19:30:44.887Z,101253.45
2023-04-09T19:35:53.064Z,101252.64
2023-04-09T19:40:57.231Z,101256.65
2023-04-09T19:46:06.884Z,101257.30
2023-04-09T19:51:17.894Z,101257.76
2023-04-09T19:56:22.162Z,101259.41
2023-04-09T20:01:26.203Z,101258.84
2023-04-09T20:06:31.205Z,101261.64
2023-04-09T20:11:35.727Z,101267.09
2023-04-09T20:16:39.420Z,101264.66
2023-04-09T20:21:44.090Z,101264.95
2023-04-09T20:26:49.017Z,101263.89
2023-04-09T20:31:56.170Z,101268.16
2023-04-09T20:37:08.729Z,101265.52
2023-04-09T20:42:12.574Z,101265.45
2023-04-09T20:47:17.251Z,101264.57
2023-04-09T20:52:21.077Z,101261.05
2023-04-09T20:57:25.348Z,101259.29
2023-04-09T21:02:29.469Z,101259.11
2023-04-09T21:07:33.372Z,101262.65
2023-04-09T21:12:40.888Z,101258.47
2023-04-09T21:17:48.342Z,101260.95
2023-04-09T21:22:54.900Z,101261.90
2023-04-09T21:28:03.790Z,101262.64
2023-04-09T21:33:11.617Z,101255.95
2023-04-09T21:38:18.444Z,101252.84
2023-04-09T21:43:24.124Z,101255.26
2023-04-09T21:48:30.959Z,101257.60
2023-04-09T21:53:38.662Z,101258.17
2023-04-09T21:58:47.396Z,101259.80
2023-04-09T22:03:52.453Z,101265.72
2023-04-09T22:08:58.215Z,101263.64
2023-04-09T22:14:02.491Z,101267.23
2023-04-09T22:19:09.062Z,101264.77
2023-04-09T22:24:14.627Z,101257.83
2023-04-09T22:29:18.396Z,101256.45
2023-04-09T22:34:22.351Z,101261.11
2023-04-09T22:39:27.050Z,101251.05
2023-04-09T22:44:30.982Z,101245.10
2023-04-09T22:49:34.774Z,101246.34
2023-04-09T22:54:38.888Z,101249.48
2023-04-09T22:59:42.645Z,101254.75
2023-04-09T23:04:46.494Z,101257.23
2023-04-09T23:09:50.353Z,101260.27
2023-04-09T23:14:55.063Z,101257.79
2023-04-09T23:19:59.946Z,101256.13
2023-04-09T23:25:05.353Z,101254.36
2023-04-09T23:30:09.853Z,101250.12
2023-04-09T23:35:13.910Z,101247.66
2023-04-09T23:40:20.290Z,101251.20
2023-04-09T23:45:24.047Z,101248.83
2023-04-09T23:50:29.060Z,101248.80
2023-04-09T23:55:33.777Z,101249.64
